createdAt,value
2018-10-06T00:00:19.072Z,99.90
2018-10-06T00:02:47.507Z,99.90
2018-10-06T00:05:15.853Z,99.90
2018-10-06T00:07:44.220Z,99.90
2018-10-06T00:10:12.548Z,99.90
2018-10-06T00:12:40.912Z,99.90
2018-10-06T00:15:09.329Z,99.90
2018-10-06T00:17:37.679Z,99.90
2018-10-06T00:20:06.622Z,99.90
2018-10-06T00:22:34.988Z,99.90
2018-10-06T00:25:03.357Z,99.90
2018-10-06T00:27:31.712Z,99.90
2018-10-06T00:30:00.059Z,99.90
2018-10-06T00:32:28.552Z,99.90
2018-10-06T00:34:57.183Z,99.90
2018-10-06T00:37:25.601Z,99.90
2018-10-06T00:39:53.969Z,99.90
2018-10-06T00:42:22.324Z,99.90
2018-10-06T00:44:50.639Z,99.90
2018-10-06T00:47:19.132Z,99.90
2018-10-06T00:49:47.332Z,99.90
2018-10-06T00:52:15.683Z,99.90
2018-10-06T00:54:44.013Z,99.90
2018-10-06T00:57:12.369Z,99.90
2018-10-06T00:59:40.700Z,99.90
2018-10-06T01:02:09.080Z,99.90
2018-10-06T01:04:37.404Z,99.90
2018-10-06T01:07:05.758Z,99.90
2018-10-06T01:09:34.133Z,99.90
2018-10-06T01:12:02.497Z,99.90
2018-10-06T01:14:30.833Z,99.90
2018-10-06T01:16:59.184Z,99.90
2018-10-06T01:19:27.816Z,99.90
2018-10-06T01:21:56.209Z,99.90
2018-10-06T01:24:24.523Z,99.90
2018-10-06T01:26:52.888Z,99.90
2018-10-06T01:29:21.227Z,99.90
2018-10-06T01:31:49.593Z,99.90
2018-10-06T01:34:17.952Z,99.90
2018-10-06T01:36:46.320Z,99.90
2018-10-06T01:39:14.672Z,99.90
2018-10-06T01:41:42.986Z,99.90
2018-10-06T01:44:11.337Z,99.90
2018-10-06T01:46:39.653Z,99.90
2018-10-06T01:49:08.024Z,99.90
2018-10-06T01:51:36.339Z,99.90
2018-10-06T01:54:04.698Z,99.90
2018-10-06T01:56:33.008Z,99.90
2018-10-06T01:59:01.370Z,99.90
2018-10-06T02:01:29.718Z,99.90
2018-10-06T02:03:58.087Z,99.90
2018-10-06T02:06:26.407Z,99.90
2018-10-06T02:08:54.807Z,99.90
2018-10-06T02:11:23.124Z,99.90
2018-10-06T02:13:51.484Z,99.90
2018-10-06T02:16:19.811Z,99.90
2018-10-06T02:18:48.162Z,99.90
2018-10-06T02:21:16.480Z,99.90
2018-10-06T02:23:44.827Z,99.90
2018-10-06T02:26:13.148Z,99.90
2018-10-06T02:28:41.520Z,99.90
2018-10-06T02:31:09.833Z,99.90
2018-10-06T02:33:38.192Z,99.90
2018-10-06T02:36:06.528Z,99.90
2018-10-06T02:38:34.895Z,99.90
2018-10-06T02:41:03.243Z,99.90
2018-10-06T02:43:31.602Z,99.90
2018-10-06T02:45:59.932Z,99.90
2018-10-06T02:48:28.349Z,99.90
2018-10-06T02:50:56.717Z,99.90
2018-10-06T02:53:25.079Z,99.90
2018-10-06T02:55:53.404Z,99.90
2018-10-06T02:58:21.759Z,99.90
2018-10-06T03:00:50.094Z,99.90
2018-10-06T03:03:18.463Z,99.90
2018-10-06T03:05:46.795Z,99.90
2018-10-06T03:08:15.240Z,99.90
2018-10-06T03:10:43.602Z,99.90
2018-10-06T03:13:11.955Z,99.90
2018-10-06T03:15:40.300Z,99.90
2018-10-06T03:18:08.675Z,99.90
2018-10-06T03:20:36.989Z,99.90
2018-10-06T03:23:05.348Z,99.90
2018-10-06T03:25:33.686Z,99.90
2018-10-06T03:28:02.007Z,99.90
2018-10-06T03:30:30.368Z,99.90
2018-10-06T03:32:58.704Z,99.90
2018-10-06T03:35:27.052Z,99.90
2018-10-06T03:37:55.363Z,99.90
2018-10-06T03:40:23.758Z,99.90
2018-10-06T03:42:52.084Z,99.90
2018-10-06T03:45:20.450Z,99.90
2018-10-06T03:47:48.772Z,99.90
2018-10-06T03:50:17.129Z,99.90
2018-10-06T03:52:45.457Z,99.90
2018-10-06T03:55:13.824Z,99.90
2018-10-06T03:57:42.197Z,99.90
2018-10-06T04:00:10.572Z,99.90
2018-10-06T04:02:38.888Z,99.90
2018-10-06T04:05:07.244Z,99.90
2018-10-06T04:07:35.568Z,99.90
2018-10-06T04:10:03.935Z,99.90
2018-10-06T04:12:32.254Z,99.90
2018-10-06T04:15:00.660Z,99.90
2018-10-06T04:17:28.976Z,99.90
2018-10-06T04:19:57.344Z,99.90
2018-10-06T04:22:25.672Z,99.90
2018-10-06T04:24:54.043Z,99.90
2018-10-06T04:27:22.351Z,99.90
2018-10-06T04:29:50.732Z,99.90
2018-10-06T04:32:19.048Z,99.90
2018-10-06T04:34:47.409Z,99.90
2018-10-06T04:37:15.735Z,99.90
2018-10-06T04:39:44.108Z,99.90
2018-10-06T04:42:12.429Z,99.90
2018-10-06T04:44:40.799Z,99.90
2018-10-06T04:47:09.111Z,99.90
2018-10-06T04:49:37.464Z,99.90
2018-10-06T04:52:06.040Z,99.90
2018-10-06T04:54:34.396Z,99.90
2018-10-06T04:57:02.705Z,99.90
2018-10-06T04:59:31.065Z,99.90
2018-10-06T05:01:59.394Z,99.90
2018-10-06T05:04:27.748Z,99.90
2018-10-06T05:06:56.085Z,99.90
2018-10-06T05:09:24.504Z,99.90
2018-10-06T05:11:52.828Z,99.90
2018-10-06T05:14:21.232Z,99.90
2018-10-06T05:16:49.875Z,99.90
2018-10-06T05:19:18.387Z,99.90
2018-10-06T05:21:46.775Z,99.90
2018-10-06T05:24:15.383Z,99.90
2018-10-06T05:26:43.845Z,99.90
2018-10-06T05:29:12.151Z,99.90
2018-10-06T05:31:44.330Z,99.90
2018-10-06T05:34:12.726Z,99.90
2018-10-06T05:36:41.195Z,99.90
2018-10-06T05:39:10.683Z,99.90
2018-10-06T05:41:39.053Z,99.90
2018-10-06T05:44:07.401Z,99.90
2018-10-06T05:46:35.803Z,99.90
2018-10-06T05:49:04.188Z,99.90
2018-10-06T05:51:32.577Z,99.90
2018-10-06T05:54:00.906Z,99.90
2018-10-06T05:56:29.298Z,99.90
2018-10-06T05:58:57.723Z,99.90
2018-10-06T06:01:26.060Z,99.90
2018-10-06T06:03:54.460Z,99.90
2018-10-06T06:06:22.851Z,99.90
2018-10-06T06:08:51.192Z,99.90
2018-10-06T06:11:19.636Z,99.90
2018-10-06T06:13:48.073Z,99.90
2018-10-06T06:16:16.468Z,99.90
2018-10-06T06:18:44.803Z,99.90
2018-10-06T06:21:13.220Z,99.90
2018-10-06T06:23:41.565Z,99.90
2018-10-06T06:26:09.934Z,99.90
2018-10-06T06:28:38.268Z,99.90
2018-10-06T06:31:06.693Z,99.90
2018-10-06T06:33:34.997Z,99.90
2018-10-06T06:36:03.369Z,99.90
2018-10-06T06:38:31.680Z,99.90
2018-10-06T06:41:00.041Z,99.90
2018-10-06T06:43:28.408Z,99.90
2018-10-06T06:45:56.754Z,99.90
2018-10-06T06:48:25.153Z,99.90
2018-10-06T06:50:53.567Z,99.90
2018-10-06T06:53:21.931Z,99.90
2018-10-06T06:55:50.388Z,99.90
2018-10-06T06:58:19.227Z,99.90
2018-10-06T07:00:47.971Z,99.90
2018-10-06T07:03:16.463Z,99.90
2018-10-06T07:05:44.947Z,99.90
2018-10-06T07:08:13.361Z,99.90
2018-10-06T07:10:41.796Z,99.90
2018-10-06T07:13:10.193Z,99.90
2018-10-06T07:15:38.661Z,99.90
2018-10-06T07:18:07.288Z,99.90
2018-10-06T07:20:35.833Z,99.90
2018-10-06T07:23:04.192Z,99.90
2018-10-06T07:25:32.809Z,99.90
2018-10-06T07:28:01.157Z,99.90
2018-10-06T07:30:29.496Z,99.90
2018-10-06T07:32:57.912Z,99.90
2018-10-06T07:35:26.362Z,99.90
2018-10-06T07:37:55.060Z,99.90
2018-10-06T07:40:23.472Z,99.90
2018-10-06T07:42:51.874Z,99.90
2018-10-06T07:45:20.260Z,99.90
2018-10-06T07:47:48.661Z,99.90
2018-10-06T07:50:17.003Z,99.90
2018-10-06T07:52:45.517Z,99.90
2018-10-06T07:55:13.901Z,99.90
2018-10-06T07:57:42.256Z,99.90
2018-10-06T08:00:10.589Z,99.90
2018-10-06T08:02:38.970Z,99.90
2018-10-06T08:05:07.308Z,99.90
2018-10-06T08:07:35.684Z,99.90
2018-10-06T08:10:04.050Z,99.90
2018-10-06T08:12:32.435Z,99.90
2018-10-06T08:15:00.869Z,99.90
2018-10-06T08:17:29.204Z,99.90
2018-10-06T08:19:57.550Z,99.90
2018-10-06T08:22:25.931Z,99.90
2018-10-06T08:24:54.252Z,99.90
2018-10-06T08:27:22.627Z,99.90
2018-10-06T08:29:50.976Z,99.90
2018-10-06T08:32:19.368Z,99.90
2018-10-06T08:34:47.698Z,99.90
2018-10-06T08:37:16.128Z,99.90
2018-10-06T08:39:44.461Z,99.90
2018-10-06T08:42:12.840Z,99.90
2018-10-06T08:44:41.164Z,99.90
2018-10-06T08:47:09.541Z,99.90
2018-10-06T08:49:37.870Z,99.90
2018-10-06T08:52:06.545Z,99.90
2018-10-06T08:54:34.860Z,99.90
2018-10-06T08:57:03.240Z,99.90
2018-10-06T08:59:31.608Z,99.90
2018-10-06T09:01:59.948Z,99.90
2018-10-06T09:04:28.381Z,99.90
2018-10-06T09:06:56.710Z,99.90
2018-10-06T09:09:25.088Z,99.90
2018-10-06T09:11:53.412Z,99.90
2018-10-06T09:14:21.847Z,99.90
2018-10-06T09:16:50.181Z,99.90
2018-10-06T09:19:18.557Z,99.90
2018-10-06T09:21:46.904Z,99.90
2018-10-06T09:24:15.311Z,99.90
2018-10-06T09:26:43.664Z,99.90
2018-10-06T09:29:12.129Z,99.90
2018-10-06T09:31:40.477Z,99.90
2018-10-06T09:34:08.945Z,99.90
2018-10-06T09:36:37.285Z,99.90
2018-10-06T09:39:07.056Z,99.90
2018-10-06T09:41:35.384Z,99.90
2018-10-06T09:44:03.793Z,99.90
2018-10-06T09:46:32.232Z,99.90
2018-10-06T09:49:00.738Z,99.90
2018-10-06T09:51:29.092Z,99.90
2018-10-06T09:53:57.474Z,99.90
2018-10-06T09:56:25.845Z,99.90
2018-10-06T09:58:54.219Z,99.00
2018-10-06T10:01:27.809Z,98.20
2018-10-06T10:04:01.321Z,98.00
2018-10-06T10:06:29.651Z,97.40
2018-10-06T10:08:58.031Z,97.50
2018-10-06T10:11:26.360Z,97.10
2018-10-06T10:13:54.741Z,96.50
2018-10-06T10:16:23.077Z,96.20
2018-10-06T10:18:51.476Z,96.70
2018-10-06T10:21:19.808Z,96.50
2018-10-06T10:23:48.214Z,94.00
2018-10-06T10:26:16.528Z,94.60
2018-10-06T10:28:44.945Z,93.80
2018-10-06T10:31:13.275Z,93.00
2018-10-06T10:33:41.644Z,91.90
2018-10-06T10:36:10.009Z,92.40
2018-10-06T10:38:39.293Z,91.20
2018-10-06T10:41:07.809Z,91.20
2018-10-06T10:43:36.195Z,91.50
2018-10-06T10:46:04.530Z,90.30
2018-10-06T10:48:32.936Z,90.90
2018-10-06T10:51:01.260Z,90.80
2018-10-06T10:53:29.650Z,90.70
2018-10-06T10:55:57.976Z,90.80
2018-10-06T10:58:26.368Z,89.10
2018-10-06T11:00:54.712Z,88.00
2018-10-06T11:03:23.091Z,86.30
2018-10-06T11:05:51.428Z,86.00
2018-10-06T11:08:21.893Z,83.60
2018-10-06T11:10:50.222Z,83.30
2018-10-06T11:13:18.609Z,82.70
2018-10-06T11:15:47.092Z,82.00
2018-10-06T11:18:15.464Z,80.80
2018-10-06T11:20:43.787Z,80.60
2018-10-06T11:23:12.211Z,81.30
2018-10-06T11:25:40.544Z,80.50
2018-10-06T11:28:08.940Z,78.70
2018-10-06T11:30:37.256Z,78.70
2018-10-06T11:33:05.660Z,79.60
2018-10-06T11:35:34.018Z,79.60
2018-10-06T11:38:02.518Z,79.20
2018-10-06T11:40:30.815Z,80.60
2018-10-06T11:42:59.216Z,79.20
2018-10-06T11:45:27.540Z,79.90
2018-10-06T11:47:55.925Z,81.60
2018-10-06T11:50:24.275Z,82.20
2018-10-06T11:52:52.646Z,82.40
2018-10-06T11:55:20.980Z,85.20
2018-10-06T11:57:49.402Z,85.30
2018-10-06T12:00:17.887Z,85.00
2018-10-06T12:02:46.175Z,85.30
2018-10-06T12:05:14.504Z,86.10
2018-10-06T12:07:42.840Z,87.00
2018-10-06T12:10:11.237Z,86.20
2018-10-06T12:12:39.600Z,86.30
2018-10-06T12:15:08.022Z,86.20
2018-10-06T12:17:36.389Z,87.30
2018-10-06T12:20:04.800Z,85.30
2018-10-06T12:22:33.196Z,85.20
2018-10-06T12:25:01.617Z,84.10
2018-10-06T12:27:30.065Z,84.90
2018-10-06T12:29:58.406Z,86.20
2018-10-06T12:32:26.794Z,85.00
2018-10-06T12:34:55.280Z,86.10
2018-10-06T12:37:23.625Z,86.20
2018-10-06T12:39:51.976Z,82.60
2018-10-06T12:42:20.537Z,81.00
2018-10-06T12:44:48.781Z,82.10
2018-10-06T12:47:17.205Z,82.10
2018-10-06T12:49:45.585Z,84.20
2018-10-06T12:52:13.976Z,84.50
2018-10-06T12:54:42.428Z,84.90
2018-10-06T12:57:10.841Z,81.30
2018-10-06T12:59:39.196Z,81.20
2018-10-06T13:02:07.592Z,81.70
2018-10-06T13:04:35.935Z,81.40
2018-10-06T13:07:04.349Z,81.10
2018-10-06T13:09:32.692Z,80.60
2018-10-06T13:12:07.844Z,79.60
2018-10-06T13:14:36.176Z,80.80
2018-10-06T13:17:04.573Z,80.90
2018-10-06T13:19:32.905Z,80.90
2018-10-06T13:22:01.299Z,80.20
2018-10-06T13:24:29.632Z,78.10
2018-10-06T13:26:58.007Z,78.30
2018-10-06T13:29:26.395Z,77.30
2018-10-06T13:31:54.824Z,77.10
2018-10-06T13:34:23.128Z,77.00
2018-10-06T13:36:51.540Z,77.90
2018-10-06T13:39:19.884Z,78.50
2018-10-06T13:41:48.265Z,77.00
2018-10-06T13:44:16.603Z,76.80
2018-10-06T13:46:45.093Z,78.80
2018-10-06T13:49:13.379Z,78.60
2018-10-06T13:51:41.759Z,80.10
2018-10-06T13:54:10.130Z,77.30
2018-10-06T13:56:38.566Z,77.50
2018-10-06T13:59:06.904Z,78.20
2018-10-06T14:01:35.311Z,77.70
2018-10-06T14:04:03.637Z,76.10
2018-10-06T14:06:32.096Z,75.70
2018-10-06T14:09:00.428Z,76.20
2018-10-06T14:11:28.769Z,76.50
2018-10-06T14:13:57.129Z,77.20
2018-10-06T14:16:25.452Z,76.00
2018-10-06T14:18:53.823Z,73.40
2018-10-06T14:21:22.152Z,73.10
2018-10-06T14:23:50.543Z,73.30
2018-10-06T14:26:19.063Z,72.80
2018-10-06T14:28:47.392Z,72.80
2018-10-06T14:31:15.731Z,71.50
2018-10-06T14:33:44.108Z,72.40
2018-10-06T14:36:12.529Z,73.40
2018-10-06T14:38:40.924Z,72.40
2018-10-06T14:41:09.292Z,72.60
2018-10-06T14:43:37.673Z,72.40
2018-10-06T14:46:06.369Z,72.00
2018-10-06T14:48:34.748Z,72.30
2018-10-06T14:51:03.192Z,73.10
2018-10-06T14:53:32.264Z,73.60
2018-10-06T14:56:00.598Z,72.90
2018-10-06T14:58:28.993Z,70.90
2018-10-06T15:00:57.347Z,72.00
2018-10-06T15:03:25.736Z,71.40
2018-10-06T15:05:54.097Z,71.80
2018-10-06T15:08:22.485Z,72.50
2018-10-06T15:10:50.822Z,73.10
2018-10-06T15:13:19.236Z,73.60
2018-10-06T15:15:47.612Z,72.70
2018-10-06T15:18:15.991Z,73.90
2018-10-06T15:20:44.345Z,74.20
2018-10-06T15:23:12.731Z,74.50
2018-10-06T15:25:41.101Z,75.10
2018-10-06T15:28:09.497Z,75.50
2018-10-06T15:30:37.864Z,77.00
2018-10-06T15:33:06.572Z,76.90
2018-10-06T15:35:35.652Z,76.80
2018-10-06T15:38:04.200Z,76.90
2018-10-06T15:40:32.529Z,77.50
2018-10-06T15:43:00.954Z,78.30
2018-10-06T15:45:29.321Z,78.50
2018-10-06T15:47:57.710Z,78.80
2018-10-06T15:50:26.077Z,79.20
2018-10-06T15:52:54.688Z,79.60
2018-10-06T15:55:23.464Z,80.10
2018-10-06T15:57:51.843Z,79.80
2018-10-06T16:00:20.175Z,79.30
2018-10-06T16:02:48.648Z,79.40
2018-10-06T16:05:16.952Z,79.40
2018-10-06T16:07:45.312Z,79.20
2018-10-06T16:10:13.676Z,79.70
2018-10-06T16:12:42.000Z,80.20
2018-10-06T16:15:10.363Z,81.80
2018-10-06T16:17:38.688Z,83.80
2018-10-06T16:20:07.103Z,85.30
2018-10-06T16:22:35.428Z,86.80
2018-10-06T16:25:03.828Z,88.30
2018-10-06T16:27:32.229Z,89.50
2018-10-06T16:30:00.560Z,90.20
2018-10-06T16:32:28.898Z,90.40
2018-10-06T16:34:57.269Z,90.70
2018-10-06T16:37:25.599Z,91.20
2018-10-06T16:39:53.949Z,91.60
2018-10-06T16:42:22.264Z,92.00
2018-10-06T16:44:50.626Z,92.60
2018-10-06T16:47:18.984Z,92.90
2018-10-06T16:49:47.332Z,93.20
2018-10-06T16:52:15.670Z,93.70
2018-10-06T16:54:44.040Z,94.30
2018-10-06T16:57:12.372Z,94.60
2018-10-06T16:59:40.748Z,94.90
2018-10-06T17:02:09.149Z,95.10
2018-10-06T17:04:37.464Z,95.80
2018-10-06T17:07:05.801Z,96.40
2018-10-06T17:09:34.157Z,96.60
2018-10-06T17:12:02.492Z,96.90
2018-10-06T17:14:30.857Z,97.20
2018-10-06T17:16:59.175Z,97.60
2018-10-06T17:19:27.528Z,98.10
2018-10-06T17:21:55.852Z,98.50
2018-10-06T17:24:24.289Z,98.90
2018-10-06T17:26:52.556Z,99.50
2018-10-06T17:29:20.931Z,99.80
2018-10-06T17:31:49.248Z,99.90
2018-10-06T17:34:17.626Z,99.90
2018-10-06T17:36:46.005Z,99.90
2018-10-06T17:39:14.380Z,99.90
2018-10-06T17:41:42.721Z,99.90
2018-10-06T17:44:11.177Z,99.90
2018-10-06T17:46:39.477Z,99.90
2018-10-06T17:49:07.869Z,99.90
2018-10-06T17:51:36.208Z,99.90
2018-10-06T17:54:04.556Z,99.90
2018-10-06T17:56:32.940Z,99.90
2018-10-06T17:59:01.362Z,99.90
2018-10-06T18:01:29.768Z,99.90
2018-10-06T18:03:58.124Z,99.90
2018-10-06T18:06:26.524Z,99.90
2018-10-06T18:08:54.853Z,99.90
2018-10-06T18:11:23.276Z,99.90
2018-10-06T18:13:51.669Z,99.90
2018-10-06T18:16:20.030Z,99.90
2018-10-06T18:18:48.365Z,99.90
2018-10-06T18:21:16.845Z,99.90
2018-10-06T18:23:45.081Z,99.90
2018-10-06T18:26:13.497Z,99.90
2018-10-06T18:28:41.797Z,99.90
2018-10-06T18:31:10.244Z,99.90
2018-10-06T18:33:38.599Z,99.90
2018-10-06T18:36:07.139Z,99.90
2018-10-06T18:38:35.437Z,99.90
2018-10-06T18:41:03.816Z,99.90
2018-10-06T18:43:32.174Z,99.90
2018-10-06T18:46:00.544Z,99.90
2018-10-06T18:48:28.869Z,99.90
2018-10-06T18:50:57.237Z,99.90
2018-10-06T18:53:25.572Z,99.90
2018-10-06T18:55:53.944Z,99.90
2018-10-06T18:58:22.285Z,99.90
2018-10-06T19:00:50.649Z,99.90
2018-10-06T19:03:19.025Z,99.90
2018-10-06T19:05:47.365Z,99.90
2018-10-06T19:08:15.761Z,99.90
2018-10-06T19:10:44.137Z,99.90
2018-10-06T19:13:12.463Z,99.90
2018-10-06T19:15:40.911Z,99.90
2018-10-06T19:18:09.199Z,99.90
2018-10-06T19:20:37.567Z,99.90
2018-10-06T19:23:05.936Z,99.90
2018-10-06T19:25:34.315Z,99.90
2018-10-06T19:28:02.686Z,99.90
2018-10-06T19:30:31.076Z,99.90
2018-10-06T19:32:59.421Z,99.90
2018-10-06T19:35:27.820Z,99.90
2018-10-06T19:37:58.268Z,99.90
2018-10-06T19:40:26.601Z,99.90
2018-10-06T19:42:54.984Z,99.90
2018-10-06T19:45:23.331Z,99.90
2018-10-06T19:47:51.700Z,99.90
2018-10-06T19:50:20.143Z,99.90
2018-10-06T19:52:48.614Z,99.90
2018-10-06T19:55:16.948Z,99.90
2018-10-06T19:57:45.321Z,99.90
2018-10-06T20:00:13.651Z,99.90
2018-10-06T20:02:42.069Z,99.90
2018-10-06T20:05:10.401Z,99.90
2018-10-06T20:07:38.786Z,99.90
2018-10-06T20:10:07.138Z,99.90
2018-10-06T20:12:35.505Z,99.90
2018-10-06T20:15:03.884Z,99.90
2018-10-06T20:17:32.259Z,99.90
2018-10-06T20:20:00.596Z,99.90
2018-10-06T20:22:28.969Z,99.90
2018-10-06T20:24:57.934Z,99.90
2018-10-06T20:27:26.299Z,99.90
2018-10-06T20:29:54.668Z,99.90
2018-10-06T20:32:23.044Z,99.90
2018-10-06T20:34:51.389Z,99.90
2018-10-06T20:37:19.846Z,99.90
2018-10-06T20:39:48.209Z,99.90
2018-10-06T20:42:16.616Z,99.90
2018-10-06T20:44:45.088Z,99.90
2018-10-06T20:47:13.679Z,99.90
2018-10-06T20:49:42.400Z,99.90
2018-10-06T20:52:10.980Z,99.90
2018-10-06T20:54:39.318Z,99.90
2018-10-06T20:57:07.780Z,99.90
2018-10-06T20:59:36.157Z,99.90
2018-10-06T21:02:04.727Z,99.90
2018-10-06T21:04:33.088Z,99.90
2018-10-06T21:07:01.464Z,99.90
2018-10-06T21:09:29.803Z,99.90
2018-10-06T21:11:58.208Z,99.90
2018-10-06T21:14:26.569Z,99.90
2018-10-06T21:16:54.900Z,99.90
2018-10-06T21:19:23.281Z,99.90
2018-10-06T21:21:51.603Z,99.90
2018-10-06T21:24:20.038Z,99.90
2018-10-06T21:26:48.362Z,99.90
2018-10-06T21:29:16.740Z,99.90
2018-10-06T21:31:45.150Z,99.90
2018-10-06T21:34:13.601Z,99.90
2018-10-06T21:36:41.940Z,99.90
2018-10-06T21:39:10.412Z,99.90
2018-10-06T21:41:38.743Z,99.90
2018-10-06T21:44:07.121Z,99.90
2018-10-06T21:46:35.456Z,99.90
2018-10-06T21:49:03.929Z,99.90
2018-10-06T21:51:32.260Z,99.90
2018-10-06T21:54:00.637Z,99.90
2018-10-06T21:56:28.977Z,99.90
2018-10-06T21:58:57.373Z,99.90
2018-10-06T22:01:25.724Z,99.90
2018-10-06T22:03:54.138Z,99.90
2018-10-06T22:06:22.464Z,99.90
2018-10-06T22:08:53.271Z,99.90
2018-10-06T22:11:21.604Z,99.90
2018-10-06T22:13:50.259Z,99.90
2018-10-06T22:16:18.691Z,99.90
2018-10-06T22:18:47.084Z,99.90
2018-10-06T22:21:15.426Z,99.90
2018-10-06T22:23:43.816Z,99.90
2018-10-06T22:26:12.337Z,99.90
2018-10-06T22:28:41.068Z,99.90
2018-10-06T22:31:09.383Z,99.90
2018-10-06T22:33:37.793Z,99.90
2018-10-06T22:36:06.156Z,99.90
2018-10-06T22:38:34.725Z,99.90
2018-10-06T22:41:03.856Z,99.90
2018-10-06T22:43:32.245Z,99.90
2018-10-06T22:46:00.701Z,99.90
2018-10-06T22:48:29.098Z,99.90
2018-10-06T22:50:57.429Z,99.90
2018-10-06T22:53:25.805Z,99.90
2018-10-06T22:55:54.129Z,99.90
2018-10-06T22:58:22.520Z,99.90
2018-10-06T23:00:50.848Z,99.90
2018-10-06T23:03:19.293Z,99.90
2018-10-06T23:05:47.572Z,99.90
2018-10-06T23:08:16.414Z,99.90
2018-10-06T23:10:44.802Z,99.90
2018-10-06T23:13:13.133Z,99.90
2018-10-06T23:15:41.543Z,99.90
2018-10-06T23:18:09.872Z,99.90
2018-10-06T23:20:38.272Z,99.90
2018-10-06T23:23:06.624Z,99.90
2018-10-06T23:25:35.018Z,99.90
2018-10-06T23:28:03.399Z,99.90
2018-10-06T23:30:31.767Z,99.90
2018-10-06T23:33:00.097Z,99.90
2018-10-06T23:35:28.532Z,99.90
2018-10-06T23:37:56.856Z,99.90
2018-10-06T23:40:25.301Z,99.90
2018-10-06T23:42:53.624Z,99.90
2018-10-06T23:45:22.138Z,99.90
2018-10-06T23:47:50.517Z,99.90
2018-10-06T23:50:18.904Z,99.90
2018-10-06T23:52:47.236Z,99.90
2018-10-06T23:55:15.696Z,99.90
2018-10-06T23:57:44.052Z,99.90
